createdAt,value
2022-11-18T00:02:43.442Z,101984.56
2022-11-18T00:05:55.347Z,101977.91
2022-11-18T00:09:02.218Z,101986.38
2022-11-18T00:12:24.657Z,101982.22
2022-11-18T00:15:31.858Z,101974.66
2022-11-18T00:18:37.095Z,101972.91
2022-11-18T00:21:42.589Z,101975.41
2022-11-18T00:24:48.651Z,101964.59
2022-11-18T00:27:53.511Z,101967.16
2022-11-18T00:31:03.932Z,101970.56
2022-11-18T00:34:11.731Z,101979.00
2022-11-18T00:37:16.708Z,101978.25
2022-11-18T00:40:23.018Z,101979.19
2022-11-18T00:43:27.699Z,101974.13
2022-11-18T00:46:32.569Z,101979.13
2022-11-18T00:49:37.251Z,101981.81
2022-11-18T00:52:42.333Z,101983.59
2022-11-18T00:55:48.251Z,101984.41
2022-11-18T00:58:53.348Z,101986.13
2022-11-18T01:01:57.966Z,101978.44
2022-11-18T01:05:02.800Z,101986.94
2022-11-18T01:08:07.949Z,101989.38
2022-11-18T01:11:32.122Z,101994.44
2022-11-18T01:14:37.280Z,101998.59
2022-11-18T01:17:42.224Z,101997.81
2022-11-18T01:20:47.918Z,102003.84
2022-11-18T01:23:53.489Z,102002.19
2022-11-18T01:26:59.491Z,101996.31
2022-11-18T01:30:04.941Z,101996.22
2022-11-18T01:33:12.695Z,102002.88
2022-11-18T01:36:19.714Z,102002.94
2022-11-18T01:39:24.441Z,101997.16
2022-11-18T01:42:30.650Z,102002.19
2022-11-18T01:45:36.794Z,102001.34
2022-11-18T01:48:42.036Z,102005.66
2022-11-18T01:51:51.334Z,102009.88
2022-11-18T01:55:00.368Z,102003.97
2022-11-18T01:58:10.983Z,101997.06
2022-11-18T02:01:16.427Z,101995.38
2022-11-18T02:04:21.231Z,101999.75
2022-11-18T02:07:26.825Z,102000.63
2022-11-18T02:10:31.562Z,102004.81
2022-11-18T02:13:37.993Z,102010.72
2022-11-18T02:16:58.098Z,101992.13
2022-11-18T02:20:30.106Z,101993.91
2022-11-18T02:24:18.579Z,101996.31
2022-11-18T02:28:26.312Z,101996.31
2022-11-18T02:31:35.541Z,101990.41
2022-11-18T02:34:49.635Z,101999.72
2022-11-18T02:37:58.811Z,101993.84
2022-11-18T02:41:07.486Z,102003.03
2022-11-18T02:44:15.948Z,101999.72
2022-11-18T02:47:22.982Z,102001.44
2022-11-18T02:50:29.257Z,102006.50
2022-11-18T02:53:35.126Z,102006.50
2022-11-18T02:56:39.911Z,102009.03
2022-11-18T02:59:44.713Z,102008.31
2022-11-18T03:02:52.131Z,102005.75
2022-11-18T03:06:08.763Z,102002.25
2022-11-18T03:09:21.301Z,102006.50
2022-11-18T03:12:35.650Z,102002.28
2022-11-18T03:15:50.306Z,102002.19
2022-11-18T03:19:02.683Z,102002.84
2022-11-18T03:22:15.375Z,102004.69
2022-11-18T03:25:25.410Z,102001.38
2022-11-18T03:28:33.870Z,102009.84
2022-11-18T03:31:42.808Z,102016.41
2022-11-18T03:34:51.393Z,102004.63
2022-11-18T03:38:01.172Z,102020.56
2022-11-18T03:41:10.027Z,102020.59
2022-11-18T03:44:21.189Z,102023.00
2022-11-18T03:47:31.134Z,102022.97
2022-11-18T03:50:42.771Z,102023.03
2022-11-18T03:53:54.062Z,102018.84
2022-11-18T03:57:02.736Z,102002.94
2022-11-18T04:00:10.598Z,102018.06
2022-11-18T04:03:15.718Z,102025.50
2022-11-18T04:06:27.047Z,102024.75
2022-11-18T04:09:38.531Z,102022.22
2022-11-18T04:12:48.103Z,102027.09
2022-11-18T04:15:53.215Z,102017.97
2022-11-18T04:19:01.507Z,102020.44
2022-11-18T04:22:15.024Z,102022.81
2022-11-18T04:25:19.765Z,102024.47
2022-11-18T04:28:24.641Z,102032.09
2022-11-18T04:31:29.482Z,102023.75
2022-11-18T04:34:34.310Z,102032.16
2022-11-18T04:37:40.414Z,102030.44
2022-11-18T04:40:45.271Z,102033.88
2022-11-18T04:43:49.828Z,102039.91
2022-11-18T04:46:56.006Z,102037.34
2022-11-18T04:50:00.800Z,102043.28
2022-11-18T04:53:07.051Z,102040.75
2022-11-18T04:56:13.645Z,102035.69
2022-11-18T04:59:21.583Z,102040.75
2022-11-18T05:02:26.326Z,102053.31
2022-11-18T05:05:31.200Z,102050.22
2022-11-18T05:08:37.506Z,102053.53
2022-11-18T05:11:59.763Z,102064.59
2022-11-18T05:15:04.678Z,102060.50
2022-11-18T05:18:15.030Z,102058.75
2022-11-18T05:21:20.742Z,102062.03
2022-11-18T05:24:27.148Z,102059.31
2022-11-18T05:27:31.989Z,102062.88
2022-11-18T05:30:36.874Z,102070.41
2022-11-18T05:33:42.782Z,102069.66
2022-11-18T05:36:47.631Z,102072.06
2022-11-18T05:39:53.734Z,102080.50
2022-11-18T05:43:13.550Z,102078.53
2022-11-18T05:46:18.418Z,102087.88
2022-11-18T05:49:23.375Z,102097.16
2022-11-18T05:52:28.150Z,102076.00
2022-11-18T05:55:39.653Z,102085.28
2022-11-18T05:58:44.457Z,102079.41
2022-11-18T06:01:54.367Z,102077.84
2022-11-18T06:05:01.198Z,102088.03
2022-11-18T06:08:06.459Z,102081.06
2022-11-18T06:11:15.335Z,102097.75
2022-11-18T06:14:24.207Z,102102.84
2022-11-18T06:17:31.311Z,102097.63
2022-11-18T06:20:38.467Z,102102.59
2022-11-18T06:23:44.723Z,102099.03
2022-11-18T06:26:51.094Z,102114.16
2022-11-18T06:29:55.930Z,102113.06
2022-11-18T06:33:00.770Z,102119.84
2022-11-18T06:36:06.215Z,102119.69
2022-11-18T06:39:11.008Z,102128.97
2022-11-18T06:42:31.602Z,102124.63
2022-11-18T06:45:36.444Z,102122.88
2022-11-18T06:48:41.226Z,102128.78
2022-11-18T06:51:46.044Z,102129.66
2022-11-18T06:54:50.758Z,102138.78
2022-11-18T06:57:58.935Z,102134.59
2022-11-18T07:01:12.371Z,102130.66
2022-11-18T07:04:17.373Z,102134.91
2022-11-18T07:07:22.150Z,102153.38
2022-11-18T07:10:27.106Z,102149.88
2022-11-18T07:13:33.574Z,102147.41
2022-11-18T07:16:38.873Z,102163.31
2022-11-18T07:19:43.548Z,102156.81
2022-11-18T07:22:48.434Z,102163.50
2022-11-18T07:25:56.331Z,102160.06
2022-11-18T07:29:02.631Z,102168.09
2022-11-18T07:32:08.303Z,102171.47
2022-11-18T07:35:13.746Z,102173.00
2022-11-18T07:38:18.558Z,102176.25
2022-11-18T07:41:24.959Z,102171.47
2022-11-18T07:44:30.908Z,102171.38
2022-11-18T07:47:36.376Z,102174.63
2022-11-18T07:50:46.895Z,102177.28
2022-11-18T07:53:52.443Z,102181.69
2022-11-18T07:56:57.149Z,102183.28
2022-11-18T08:00:04.378Z,102177.16
2022-11-18T08:03:16.825Z,102181.38
2022-11-18T08:06:22.070Z,102177.91
2022-11-18T08:09:26.636Z,102183.53
2022-11-18T08:12:31.857Z,102186.13
2022-11-18T08:15:42.068Z,102176.78
2022-11-18T08:18:47.507Z,102183.41
2022-11-18T08:21:52.147Z,102180.09
2022-11-18T08:24:56.983Z,102179.31
2022-11-18T08:28:01.644Z,102181.22
2022-11-18T08:31:13.101Z,102187.25
2022-11-18T08:34:18.004Z,102178.81
2022-11-18T08:37:22.887Z,102186.28
2022-11-18T08:40:29.147Z,102190.69
2022-11-18T08:43:34.255Z,102190.44
2022-11-18T08:46:40.419Z,102198.00
2022-11-18T08:49:45.425Z,102191.25
2022-11-18T08:52:50.099Z,102202.25
2022-11-18T08:55:58.000Z,102192.97
2022-11-18T08:59:02.750Z,102204.69
2022-11-18T09:02:15.732Z,102204.88
2022-11-18T09:05:20.743Z,102198.81
2022-11-18T09:08:26.687Z,102209.00
2022-11-18T09:11:31.340Z,102198.03
2022-11-18T09:18:02.411Z,102201.81
2022-11-18T09:21:10.168Z,102204.94
2022-11-18T09:24:15.056Z,102200.78
2022-11-18T09:27:20.208Z,102200.94
2022-11-18T09:30:25.051Z,102196.63
2022-11-18T09:33:31.242Z,102192.19
2022-11-18T09:36:36.101Z,102192.22
2022-11-18T09:39:41.055Z,102202.16
2022-11-18T09:42:57.592Z,102197.25
2022-11-18T09:46:11.536Z,102205.59
2022-11-18T09:49:26.044Z,102207.59
2022-11-18T09:52:36.285Z,102204.44
2022-11-18T09:55:41.850Z,102204.34
2022-11-18T09:58:46.942Z,102202.69
2022-11-18T10:01:53.500Z,102205.25
2022-11-18T10:05:14.950Z,102205.56
2022-11-18T10:08:26.194Z,102211.56
2022-11-18T10:11:41.747Z,102215.00
2022-11-18T10:15:05.358Z,102214.28
2022-11-18T10:18:57.966Z,102220.75
2022-11-18T10:22:01.335Z,102215.09
2022-11-18T10:25:13.767Z,102221.56
2022-11-18T10:28:23.310Z,102223.13
2022-11-18T10:31:28.179Z,102213.22
2022-11-18T10:34:33.830Z,102211.41
2022-11-18T10:38:06.172Z,102218.88
2022-11-18T10:41:07.285Z,102212.81
2022-11-18T10:44:32.514Z,102224.56
2022-11-18T10:47:37.421Z,102222.91
2022-11-18T10:50:43.946Z,102213.09
2022-11-18T10:53:49.973Z,102216.50
2022-11-18T10:56:58.683Z,102220.91
2022-11-18T11:00:05.861Z,102218.06
2022-11-18T11:03:39.728Z,102224.88
2022-11-18T11:06:44.480Z,102219.78
2022-11-18T11:10:02.453Z,102225.53
2022-11-18T11:13:15.166Z,102217.31
2022-11-18T11:16:26.104Z,102223.63
2022-11-18T11:19:41.938Z,102212.53
2022-11-18T11:22:47.119Z,102218.19
2022-11-18T11:30:03.153Z,102209.31
2022-11-18T11:33:31.118Z,102217.53
2022-11-18T11:36:46.761Z,102213.22
2022-11-18T11:40:05.237Z,102216.59
2022-11-18T11:43:27.688Z,102208.78
2022-11-18T11:46:39.524Z,102211.09
2022-11-18T11:49:54.664Z,102219.69
2022-11-18T11:53:17.829Z,102218.19
2022-11-18T11:56:29.406Z,102213.00
2022-11-18T11:59:44.581Z,102211.94
2022-11-18T12:03:08.720Z,102205.16
2022-11-18T12:06:13.481Z,102210.25
2022-11-18T12:09:22.996Z,102214.63
2022-11-18T12:12:38.508Z,102215.59
2022-11-18T12:15:56.168Z,102218.56
2022-11-18T12:19:04.295Z,102209.41
2022-11-18T12:22:10.663Z,102208.59
2022-11-18T12:25:52.964Z,102215.34
2022-11-18T12:29:23.617Z,102210.31
2022-11-18T12:32:42.169Z,102222.69
2022-11-18T12:35:49.316Z,102218.91
2022-11-18T12:38:54.519Z,102211.69
2022-11-18T12:42:18.332Z,102211.78
2022-11-18T12:46:00.053Z,102210.97
2022-11-18T12:50:12.123Z,102214.75
2022-11-18T12:53:38.483Z,102231.63
2022-11-18T12:56:43.301Z,102223.09
2022-11-18T12:59:48.512Z,102233.66
2022-11-18T13:02:54.372Z,102223.66
2022-11-18T13:06:08.810Z,102220.50
2022-11-18T13:09:18.973Z,102212.19
2022-11-18T13:12:27.633Z,102224.00
2022-11-18T13:15:50.160Z,102215.53
2022-11-18T13:18:56.397Z,102221.38
2022-11-18T13:22:20.516Z,102216.19
2022-11-18T13:25:28.273Z,102214.16
2022-11-18T13:28:37.626Z,102220.16
2022-11-18T13:31:48.968Z,102200.75
2022-11-18T13:34:55.636Z,102201.50
2022-11-18T13:38:02.228Z,102201.31
2022-11-18T13:41:22.649Z,102198.59
2022-11-18T13:44:29.848Z,102205.38
2022-11-18T13:47:38.454Z,102209.59
2022-11-18T13:50:47.331Z,102199.16
2022-11-18T13:53:52.749Z,102202.38
2022-11-18T13:56:59.203Z,102222.25
2022-11-18T14:00:08.174Z,102212.09
2022-11-18T14:03:25.265Z,102214.66
2022-11-18T14:06:32.321Z,102220.63
2022-11-18T14:09:37.108Z,102221.19
2022-11-18T14:12:43.432Z,102224.31
2022-11-18T14:15:48.309Z,102230.47
2022-11-18T14:18:53.833Z,102222.03
2022-11-18T14:22:08.745Z,102226.09
2022-11-18T14:25:20.578Z,102225.94
2022-11-18T14:28:28.877Z,102223.63
2022-11-18T14:31:33.945Z,102231.06
2022-11-18T14:34:38.716Z,102216.06
2022-11-18T14:37:43.496Z,102217.66
2022-11-18T14:40:48.118Z,102233.53
2022-11-18T14:43:54.321Z,102231.53
2022-11-18T14:47:01.328Z,102218.03
2022-11-18T14:50:10.461Z,102217.22
2022-11-18T14:53:15.536Z,102217.31
2022-11-18T14:56:25.541Z,102217.41
2022-11-18T14:59:32.469Z,102224.16
2022-11-18T15:02:37.288Z,102220.03
2022-11-18T15:05:41.968Z,102229.94
2022-11-18T15:08:49.179Z,102234.75
2022-11-18T15:11:54.322Z,102232.38
2022-11-18T15:15:00.471Z,102229.91
2022-11-18T15:18:05.212Z,102234.16
2022-11-18T15:21:10.186Z,102235.06
2022-11-18T15:24:16.077Z,102231.06
2022-11-18T15:27:21.368Z,102230.09
2022-11-18T15:30:27.337Z,102232.06
2022-11-18T15:33:32.220Z,102237.28
2022-11-18T15:36:37.116Z,102230.19
2022-11-18T15:39:41.995Z,102229.38
2022-11-18T15:42:51.847Z,102232.06
2022-11-18T15:46:00.752Z,102217.84
2022-11-18T15:49:09.095Z,102222.03
2022-11-18T15:52:14.533Z,102222.22
2022-11-18T15:55:19.217Z,102233.16
2022-11-18T15:58:31.492Z,102222.09
2022-11-18T16:01:43.098Z,102230.47
2022-11-18T16:04:47.958Z,102215.28
2022-11-18T16:07:54.965Z,102220.25
2022-11-18T16:11:17.849Z,102216.00
2022-11-18T16:14:24.310Z,102216.88
2022-11-18T16:17:30.447Z,102217.94
2022-11-18T16:20:35.061Z,102212.81
2022-11-18T16:23:39.937Z,102225.25
2022-11-18T16:26:44.914Z,102220.16
2022-11-18T16:29:49.818Z,102210.19
2022-11-18T16:32:56.115Z,102223.63
2022-11-18T16:36:00.975Z,102214.44
2022-11-18T16:39:07.650Z,102221.97
2022-11-18T16:42:13.619Z,102230.34
2022-11-18T16:45:18.683Z,102227.94
2022-11-18T16:48:24.901Z,102227.31
2022-11-18T16:51:31.286Z,102231.28
2022-11-18T16:54:41.029Z,102232.06
2022-11-18T16:57:49.164Z,102230.94
2022-11-18T17:01:17.209Z,102222.78
2022-11-18T17:04:21.053Z,102219.72
2022-11-18T17:07:25.890Z,102221.09
2022-11-18T17:10:30.624Z,102216.75
2022-11-18T17:13:35.611Z,102215.69
2022-11-18T17:16:40.491Z,102227.28
2022-11-18T17:19:46.626Z,102217.47
2022-11-18T17:22:53.712Z,102212.59
2022-11-18T17:25:58.572Z,102217.56
2022-11-18T17:29:03.737Z,102215.25
2022-11-18T17:32:08.617Z,102212.75
2022-11-18T17:35:15.180Z,102215.00
2022-11-18T17:38:20.039Z,102231.06
2022-11-18T17:41:45.589Z,102220.28
2022-11-18T17:44:50.400Z,102236.28
2022-11-18T17:47:55.560Z,102242.25
2022-11-18T17:51:08.384Z,102237.97
2022-11-18T17:54:14.313Z,102244.50
2022-11-18T17:57:19.338Z,102240.44
2022-11-18T18:00:24.203Z,102237.75
2022-11-18T18:03:30.717Z,102241.13
2022-11-18T18:06:37.258Z,102238.72
2022-11-18T18:09:41.999Z,102238.69
2022-11-18T18:13:04.132Z,102233.19
2022-11-18T18:16:09.259Z,102243.25
2022-11-18T18:19:17.715Z,102238.81
2022-11-18T18:22:23.886Z,102235.56
2022-11-18T18:25:28.476Z,102239.28
2022-11-18T18:28:33.392Z,102228.16
2022-11-18T18:31:38.847Z,102230.88
2022-11-18T18:34:43.730Z,102231.63
2022-11-18T18:37:49.634Z,102231.56
2022-11-18T18:40:55.412Z,102226.56
2022-11-18T18:44:00.389Z,102221.59
2022-11-18T18:47:04.258Z,102240.00
2022-11-18T18:50:09.109Z,102237.47
2022-11-18T18:53:15.874Z,102245.91
2022-11-18T18:56:20.461Z,102252.06
2022-11-18T18:59:25.332Z,102242.66
2022-11-18T19:02:29.872Z,102249.34
2022-11-18T19:06:12.203Z,102246.97
2022-11-18T19:09:02.759Z,102250.97
2022-11-18T19:12:25.888Z,102253.50
2022-11-18T19:15:30.581Z,102256.56
2022-11-18T19:18:36.469Z,102258.94
2022-11-18T19:21:41.317Z,102248.16
2022-11-18T19:24:50.255Z,102253.34
2022-11-18T19:27:55.425Z,102261.81
2022-11-18T19:31:01.165Z,102253.28
2022-11-18T19:34:05.960Z,102249.00
2022-11-18T19:37:10.906Z,102254.25
2022-11-18T19:40:17.072Z,102250.97
2022-11-18T19:43:21.939Z,102244.31
2022-11-18T19:46:30.551Z,102248.38
2022-11-18T19:49:36.710Z,102237.53
2022-11-18T19:52:41.254Z,102242.63
2022-11-18T19:55:56.794Z,102238.28
2022-11-18T19:59:01.938Z,102241.03
2022-11-18T20:02:07.207Z,102232.44
2022-11-18T20:05:30.329Z,102231.44
2022-11-18T20:08:36.757Z,102238.03
2022-11-18T20:11:45.079Z,102238.03
2022-11-18T20:14:49.914Z,102248.31
2022-11-18T20:17:54.780Z,102255.16
2022-11-18T20:21:06.866Z,102244.25
2022-11-18T20:24:17.045Z,102248.69
2022-11-18T20:27:23.394Z,102243.63
2022-11-18T20:30:27.928Z,102249.34
2022-11-18T20:33:35.329Z,102246.88
2022-11-18T20:36:40.095Z,102246.97
2022-11-18T20:39:44.979Z,102247.88
2022-11-18T20:43:08.232Z,102248.63
2022-11-18T20:46:17.348Z,102255.41
2022-11-18T20:49:24.954Z,102248.63
2022-11-18T20:52:29.745Z,102263.78
2022-11-18T20:55:37.901Z,102260.19
2022-11-18T20:58:44.192Z,102266.19
2022-11-18T21:01:48.935Z,102256.22
2022-11-18T21:04:53.832Z,102247.47
2022-11-18T21:07:58.364Z,102248.16
2022-11-18T21:11:04.409Z,102239.53
2022-11-18T21:14:24.834Z,102244.63
2022-11-18T21:17:30.249Z,102250.72
2022-11-18T21:20:52.134Z,102249.13
2022-11-18T21:23:57.393Z,102252.91
2022-11-18T21:27:03.849Z,102245.44
2022-11-18T21:30:12.823Z,102253.19
2022-11-18T21:33:17.421Z,102257.94
2022-11-18T21:36:23.520Z,102265.56
2022-11-18T21:39:28.426Z,102267.88
2022-11-18T21:42:33.292Z,102260.31
2022-11-18T21:45:39.269Z,102274.66
2022-11-18T21:48:44.720Z,102263.47
2022-11-18T21:51:49.459Z,102266.25
2022-11-18T21:54:54.310Z,102266.97
2022-11-18T21:58:02.976Z,102260.13
2022-11-18T22:01:12.884Z,102252.91
2022-11-18T22:04:31.459Z,102268.28
2022-11-18T22:07:37.458Z,102272.69
2022-11-18T22:10:47.226Z,102270.31
2022-11-18T22:13:52.962Z,102270.34
2022-11-18T22:16:59.552Z,102263.59
2022-11-18T22:20:04.879Z,102245.38
2022-11-18T22:23:14.504Z,102238.31
2022-11-18T22:26:21.294Z,102237.50
2022-11-18T22:29:26.283Z,102238.47
2022-11-18T22:32:32.504Z,102250.38
2022-11-18T22:35:37.074Z,102251.09
2022-11-18T22:38:43.369Z,102259.34
2022-11-18T22:42:05.542Z,102262.94
2022-11-18T22:45:12.287Z,102260.38
2022-11-18T22:48:18.398Z,102271.06
2022-11-18T22:51:23.309Z,102271.19
2022-11-18T22:54:43.457Z,102270.22
2022-11-18T22:57:48.239Z,102255.22
2022-11-18T23:00:52.838Z,102258.22
2022-11-18T23:03:59.121Z,102256.41
2022-11-18T23:07:04.607Z,102251.66
2022-11-18T23:10:10.593Z,102232.41
2022-11-18T23:13:33.791Z,102254.13
2022-11-18T23:16:40.794Z,102252.41
2022-11-18T23:19:47.539Z,102248.41
2022-11-18T23:22:53.560Z,102241.97
2022-11-18T23:26:05.740Z,102243.44
2022-11-18T23:29:11.267Z,102256.91
2022-11-18T23:32:16.090Z,102252.38
2022-11-18T23:35:22.240Z,102262.69
2022-11-18T23:38:27.993Z,102258.50
2022-11-18T23:41:32.920Z,102260.81
2022-11-18T23:44:46.934Z,102244.25
2022-11-18T23:47:51.957Z,102258.75
2022-11-18T23:50:59.465Z,102259.47
2022-11-18T23:54:04.426Z,102262.91
2022-11-18T23:57:09.671Z,102268.03
